createdAt,value
2023-08-02T00:00:10.940Z,28.07
2023-08-02T00:02:37.942Z,28.04
2023-08-02T00:05:05.303Z,28.22
2023-08-02T00:07:32.294Z,28.08
2023-08-02T00:09:59.182Z,28.04
2023-08-02T00:12:26.599Z,28.02
2023-08-02T00:14:54.334Z,27.95
2023-08-02T00:17:24.159Z,27.90
2023-08-02T00:19:51.944Z,28.02
2023-08-02T00:22:23.786Z,28.04
2023-08-02T00:24:50.602Z,27.87
2023-08-02T00:27:17.534Z,28.00
2023-08-02T00:29:44.433Z,27.87
2023-08-02T00:32:11.379Z,27.81
2023-08-02T00:34:44.467Z,27.87
2023-08-02T00:37:11.474Z,27.74
2023-08-02T00:39:39.256Z,27.85
2023-08-02T00:42:18.313Z,27.83
2023-08-02T00:44:46.474Z,27.82
2023-08-02T00:47:15.824Z,27.77
2023-08-02T00:49:43.066Z,27.73
2023-08-02T00:52:14.104Z,27.78
2023-08-02T00:54:43.298Z,27.78
2023-08-02T00:57:10.786Z,27.89
2023-08-02T00:59:40.037Z,27.75
2023-08-02T01:02:08.424Z,27.74
2023-08-02T01:04:38.222Z,27.67
2023-08-02T01:07:24.607Z,27.77
2023-08-02T01:10:05.412Z,27.72
2023-08-02T01:12:36.515Z,27.73
2023-08-02T01:15:04.940Z,27.79
2023-08-02T01:17:40.407Z,27.75
2023-08-02T01:20:08.068Z,27.70
2023-08-02T01:22:35.461Z,27.74
2023-08-02T01:25:05.801Z,27.58
2023-08-02T01:27:41.274Z,27.52
2023-08-02T01:30:13.592Z,27.28
2023-08-02T01:32:40.984Z,27.37
2023-08-02T01:35:10.155Z,27.60
2023-08-02T01:37:37.377Z,27.47
2023-08-02T01:40:05.327Z,27.48
2023-08-02T01:42:32.532Z,27.39
2023-08-02T01:45:01.972Z,27.67
2023-08-02T01:47:30.904Z,27.43
2023-08-02T01:49:57.817Z,27.43
2023-08-02T01:52:24.680Z,27.35
2023-08-02T01:54:51.676Z,27.26
2023-08-02T01:57:18.712Z,27.21
2023-08-02T01:59:50.353Z,27.53
2023-08-02T02:02:18.058Z,27.37
2023-08-02T02:04:45.612Z,27.43
2023-08-02T02:07:12.818Z,27.55
2023-08-02T02:09:50.639Z,27.44
2023-08-02T02:12:25.874Z,27.20
2023-08-02T02:15:00.993Z,27.19
2023-08-02T02:17:28.183Z,27.09
2023-08-02T02:19:55.129Z,27.15
2023-08-02T02:22:32.305Z,27.13
2023-08-02T02:25:09.994Z,27.14
2023-08-02T02:27:44.727Z,27.14
2023-08-02T02:30:12.457Z,27.31
2023-08-02T02:32:39.507Z,27.22
2023-08-02T02:35:07.436Z,27.21
2023-08-02T02:37:34.269Z,27.22
2023-08-02T02:40:02.218Z,27.16
2023-08-02T02:42:29.209Z,27.16
2023-08-02T02:44:56.142Z,26.95
2023-08-02T02:47:23.739Z,27.20
2023-08-02T02:49:53.784Z,26.84
2023-08-02T02:52:20.902Z,27.04
2023-08-02T02:54:47.953Z,27.00
2023-08-02T02:57:27.858Z,27.04
2023-08-02T03:00:03.803Z,26.85
2023-08-02T03:02:30.876Z,26.82
2023-08-02T03:05:05.520Z,26.73
2023-08-02T03:07:35.637Z,26.58
2023-08-02T03:10:05.586Z,26.65
2023-08-02T03:12:43.243Z,26.38
2023-08-02T03:15:13.174Z,26.46
2023-08-02T03:17:40.412Z,26.86
2023-08-02T03:20:08.265Z,26.85
2023-08-02T03:22:35.225Z,27.05
2023-08-02T03:25:02.140Z,26.83
2023-08-02T03:27:38.896Z,26.66
2023-08-02T03:30:14.876Z,26.82
2023-08-02T03:32:47.290Z,25.85
2023-08-02T03:35:14.314Z,25.66
2023-08-02T03:37:49.066Z,25.66
2023-08-02T03:40:23.737Z,25.71
2023-08-02T03:42:50.573Z,25.94
2023-08-02T03:45:17.535Z,26.03
2023-08-02T03:47:44.669Z,25.72
2023-08-02T03:50:11.502Z,26.01
2023-08-02T03:52:49.195Z,25.96
2023-08-02T03:55:18.491Z,25.47
2023-08-02T03:57:45.439Z,25.12
2023-08-02T04:00:12.750Z,25.52
2023-08-02T04:02:40.526Z,25.66
2023-08-02T04:05:07.873Z,25.18
2023-08-02T04:07:34.759Z,25.09
2023-08-02T04:10:01.759Z,24.98
2023-08-02T04:12:28.874Z,24.77
2023-08-02T04:14:56.521Z,24.84
2023-08-02T04:17:23.584Z,25.31
2023-08-02T04:19:50.505Z,25.24
2023-08-02T04:22:22.012Z,24.95
2023-08-02T04:24:50.292Z,24.25
2023-08-02T04:27:26.106Z,24.65
2023-08-02T04:29:53.053Z,24.29
2023-08-02T04:32:23.928Z,24.21
2023-08-02T04:34:51.202Z,24.79
2023-08-02T04:37:18.277Z,24.57
2023-08-02T04:39:45.262Z,24.45
2023-08-02T04:42:12.187Z,24.56
2023-08-02T04:44:39.125Z,25.10
2023-08-02T04:47:06.081Z,24.80
2023-08-02T04:49:33.103Z,24.94
2023-08-02T04:52:00.065Z,25.08
2023-08-02T04:54:29.562Z,24.53
2023-08-02T04:56:59.491Z,25.03
2023-08-02T04:59:26.287Z,25.02
2023-08-02T05:01:53.206Z,24.76
2023-08-02T05:04:20.503Z,24.37
2023-08-02T05:06:47.619Z,24.50
2023-08-02T05:09:14.484Z,24.98
2023-08-02T05:11:43.190Z,25.64
2023-08-02T05:14:10.566Z,26.09
2023-08-02T05:16:38.406Z,25.70
2023-08-02T05:19:05.480Z,25.22
2023-08-02T05:21:33.139Z,24.92
2023-08-02T05:24:00.022Z,24.75
2023-08-02T05:26:27.022Z,24.85
2023-08-02T05:28:57.161Z,24.85
2023-08-02T05:31:24.099Z,24.43
2023-08-02T05:33:51.178Z,24.22
2023-08-02T05:36:18.349Z,24.44
2023-08-02T05:38:45.421Z,24.75
2023-08-02T05:41:16.077Z,25.19
2023-08-02T05:43:46.072Z,26.11
2023-08-02T05:46:13.125Z,25.69
2023-08-02T05:48:40.141Z,25.89
2023-08-02T05:51:07.734Z,26.09
2023-08-02T05:53:34.832Z,26.81
2023-08-02T05:56:01.921Z,27.02
2023-08-02T05:58:30.219Z,27.15
2023-08-02T06:00:57.407Z,26.73
2023-08-02T06:03:27.367Z,27.08
2023-08-02T06:05:54.425Z,27.42
2023-08-02T06:08:21.399Z,27.69
2023-08-02T06:10:51.209Z,27.37
2023-08-02T06:13:18.800Z,26.50
2023-08-02T06:15:46.529Z,26.83
2023-08-02T06:18:14.937Z,26.08
2023-08-02T06:20:41.985Z,25.97
2023-08-02T06:23:08.864Z,26.19
2023-08-02T06:25:36.170Z,26.31
2023-08-02T06:28:08.306Z,26.60
2023-08-02T06:30:35.357Z,26.32
2023-08-02T06:33:07.688Z,26.33
2023-08-02T06:35:35.075Z,26.17
2023-08-02T06:38:05.381Z,26.07
2023-08-02T06:40:32.845Z,25.88
2023-08-02T06:43:03.201Z,25.64
2023-08-02T06:45:29.947Z,25.68
2023-08-02T06:47:56.846Z,25.91
2023-08-02T06:50:25.701Z,25.51
2023-08-02T06:52:52.843Z,25.63
2023-08-02T06:55:25.636Z,25.80
2023-08-02T06:57:53.044Z,25.67
2023-08-02T07:00:19.992Z,25.80
2023-08-02T07:02:46.930Z,25.90
2023-08-02T07:05:13.871Z,26.26
2023-08-02T07:07:40.914Z,26.23
2023-08-02T07:10:10.771Z,25.87
2023-08-02T07:12:38.730Z,25.96
2023-08-02T07:15:06.373Z,25.90
2023-08-02T07:17:33.292Z,26.00
2023-08-02T07:20:00.262Z,25.96
2023-08-02T07:22:32.569Z,25.96
2023-08-02T07:24:59.514Z,25.93
2023-08-02T07:27:26.639Z,25.93
2023-08-02T07:29:54.383Z,26.19
2023-08-02T07:32:21.365Z,26.07
2023-08-02T07:34:49.083Z,26.12
2023-08-02T07:37:16.519Z,26.42
2023-08-02T07:39:46.585Z,26.37
2023-08-02T07:42:13.443Z,26.44
2023-08-02T07:44:40.837Z,26.54
2023-08-02T07:47:07.874Z,26.52
2023-08-02T07:49:35.003Z,26.62
2023-08-02T07:52:02.073Z,26.47
2023-08-02T07:54:32.220Z,26.47
2023-08-02T07:57:03.548Z,26.38
2023-08-02T07:59:30.534Z,26.46
2023-08-02T08:01:57.558Z,26.50
2023-08-02T08:04:24.586Z,26.69
2023-08-02T08:06:52.686Z,26.87
2023-08-02T08:09:25.442Z,26.84
2023-08-02T08:11:56.291Z,27.05
2023-08-02T08:14:23.476Z,27.27
2023-08-02T08:16:50.622Z,27.30
2023-08-02T08:19:17.593Z,27.32
2023-08-02T08:21:44.886Z,27.26
2023-08-02T08:24:13.455Z,27.35
2023-08-02T08:26:41.720Z,27.48
2023-08-02T08:29:09.038Z,27.21
2023-08-02T08:31:36.098Z,27.25
2023-08-02T08:34:03.695Z,27.23
2023-08-02T08:36:33.486Z,27.13
2023-08-02T08:39:02.713Z,27.15
2023-08-02T08:41:29.724Z,27.44
2023-08-02T08:43:56.955Z,27.39
2023-08-02T08:46:27.206Z,27.30
2023-08-02T08:48:54.215Z,27.58
2023-08-02T08:51:27.638Z,27.59
2023-08-02T08:53:57.878Z,27.69
2023-08-02T08:56:29.242Z,27.72
2023-08-02T08:58:57.621Z,27.68
2023-08-02T09:01:32.381Z,27.72
2023-08-02T09:04:07.883Z,27.72
2023-08-02T09:06:42.840Z,27.68
2023-08-02T09:09:09.940Z,27.69
2023-08-02T09:11:38.018Z,27.75
2023-08-02T09:14:13.053Z,27.93
2023-08-02T09:17:08.952Z,28.06
2023-08-02T09:19:40.937Z,28.14
2023-08-02T09:22:07.810Z,28.22
2023-08-02T09:24:36.770Z,28.09
2023-08-02T09:27:26.058Z,28.26
2023-08-02T09:30:01.725Z,28.34
2023-08-02T09:32:29.153Z,28.37
2023-08-02T09:34:59.647Z,28.36
2023-08-02T09:37:35.038Z,28.25
2023-08-02T09:40:06.136Z,28.43
2023-08-02T09:42:36.143Z,28.51
2023-08-02T09:45:10.263Z,28.49
2023-08-02T09:47:40.553Z,28.63
2023-08-02T09:50:12.686Z,28.87
2023-08-02T09:52:42.801Z,28.74
2023-08-02T09:55:13.826Z,28.70
2023-08-02T09:57:44.473Z,28.76
2023-08-02T10:00:11.842Z,28.90
2023-08-02T10:02:45.704Z,28.95
2023-08-02T10:05:19.931Z,29.06
2023-08-02T10:07:52.268Z,29.23
2023-08-02T10:10:32.798Z,29.35
2023-08-02T10:13:31.769Z,29.41
2023-08-02T10:16:00.080Z,29.56
2023-08-02T10:18:28.677Z,29.86
2023-08-02T10:20:57.055Z,30.10
2023-08-02T10:23:24.012Z,30.08
2023-08-02T10:25:51.551Z,30.22
2023-08-02T10:28:19.242Z,30.28
2023-08-02T10:30:48.553Z,30.46
2023-08-02T10:33:24.028Z,30.54
2023-08-02T10:36:04.017Z,30.46
2023-08-02T10:38:40.303Z,30.41
2023-08-02T10:41:12.499Z,30.03
2023-08-02T10:43:55.174Z,30.46
2023-08-02T10:46:34.028Z,30.66
2023-08-02T10:49:10.305Z,30.90
2023-08-02T10:51:41.189Z,31.16
2023-08-02T10:54:22.645Z,31.49
2023-08-02T10:57:06.126Z,31.41
2023-08-02T10:59:32.980Z,30.70
2023-08-02T11:02:12.582Z,31.23
2023-08-02T11:04:46.443Z,31.84
2023-08-02T11:07:21.553Z,32.10
2023-08-02T11:09:50.508Z,31.95
2023-08-02T11:12:27.649Z,31.58
2023-08-02T11:15:02.592Z,31.25
2023-08-02T11:17:54.636Z,31.15
2023-08-02T11:20:33.815Z,31.52
2023-08-02T11:23:00.964Z,31.47
2023-08-02T11:28:04.796Z,31.14
2023-08-02T11:30:35.230Z,31.55
2023-08-02T11:33:02.384Z,31.75
2023-08-02T11:35:29.433Z,31.75
2023-08-02T11:37:56.558Z,31.40
2023-08-02T11:40:27.253Z,31.61
2023-08-02T11:42:56.323Z,32.11
2023-08-02T11:45:34.526Z,32.50
2023-08-02T11:50:36.730Z,32.19
2023-08-02T11:53:11.915Z,32.22
2023-08-02T11:55:52.924Z,32.04
2023-08-02T11:58:30.332Z,32.20
2023-08-02T12:01:05.644Z,32.51
2023-08-02T12:03:32.640Z,32.27
2023-08-02T12:06:01.935Z,32.33
2023-08-02T12:08:29.118Z,32.35
2023-08-02T12:10:56.564Z,32.23
2023-08-02T12:13:27.566Z,33.22
2023-08-02T12:16:15.024Z,33.82
2023-08-02T12:19:00.495Z,34.03
2023-08-02T12:21:27.811Z,34.30
2023-08-02T12:23:55.152Z,34.28
2023-08-02T12:26:36.642Z,33.93
2023-08-02T12:29:04.761Z,34.04
2023-08-02T12:31:49.853Z,34.43
2023-08-02T12:34:16.952Z,34.14
2023-08-02T12:36:45.040Z,34.54
2023-08-02T12:39:12.289Z,34.17
2023-08-02T12:41:39.252Z,32.88
2023-08-02T12:44:06.627Z,32.65
2023-08-02T12:46:33.709Z,32.40
2023-08-02T12:49:00.633Z,32.21
2023-08-02T12:51:30.486Z,32.51
2023-08-02T12:54:05.678Z,32.98
2023-08-02T12:56:37.669Z,32.55
2023-08-02T12:59:06.161Z,32.19
2023-08-02T13:01:35.490Z,32.78
2023-08-02T13:04:03.139Z,33.56
2023-08-02T13:06:30.337Z,33.23
2023-08-02T13:08:57.245Z,32.41
2023-08-02T13:11:24.222Z,33.23
2023-08-02T13:13:51.177Z,32.90
2023-08-02T13:16:18.156Z,32.47
2023-08-02T13:18:47.016Z,32.33
2023-08-02T13:21:27.031Z,33.09
2023-08-02T13:24:02.970Z,34.32
2023-08-02T13:26:32.230Z,34.57
2023-08-02T13:29:00.014Z,34.42
2023-08-02T13:31:27.115Z,34.33
2023-08-02T13:33:56.773Z,34.89
2023-08-02T13:36:23.879Z,35.67
2023-08-02T13:38:50.831Z,35.34
2023-08-02T13:41:26.486Z,35.34
2023-08-02T13:43:53.529Z,35.35
2023-08-02T13:46:20.413Z,35.48
2023-08-02T13:48:47.257Z,35.44
2023-08-02T13:51:14.146Z,35.70
2023-08-02T13:53:41.117Z,35.85
2023-08-02T13:56:08.388Z,35.26
2023-08-02T13:58:35.228Z,35.63
2023-08-02T14:01:03.236Z,35.64
2023-08-02T14:03:30.288Z,35.03
2023-08-02T14:05:57.281Z,34.59
2023-08-02T14:08:24.423Z,34.86
2023-08-02T14:10:59.300Z,35.30
2023-08-02T14:13:36.608Z,35.60
2023-08-02T14:16:06.968Z,34.62
2023-08-02T14:18:33.993Z,33.57
2023-08-02T14:21:00.952Z,32.76
2023-08-02T14:23:29.602Z,32.96
2023-08-02T14:25:57.071Z,33.59
2023-08-02T14:28:24.005Z,33.76
2023-08-02T14:30:51.012Z,34.11
2023-08-02T14:33:19.145Z,34.13
2023-08-02T14:35:46.075Z,33.63
2023-08-02T14:38:13.066Z,33.70
2023-08-02T14:40:40.009Z,33.67
2023-08-02T14:43:07.046Z,33.31
2023-08-02T14:45:33.972Z,32.60
2023-08-02T14:48:00.934Z,32.56
2023-08-02T14:50:29.082Z,33.78
2023-08-02T14:53:00.500Z,34.29
2023-08-02T14:55:30.465Z,34.90
2023-08-02T14:58:00.081Z,34.47
2023-08-02T15:00:27.013Z,33.97
2023-08-02T15:02:54.085Z,34.26
2023-08-02T15:05:24.319Z,34.97
2023-08-02T15:07:51.328Z,35.07
2023-08-02T15:10:19.898Z,35.54
2023-08-02T15:12:46.809Z,35.24
2023-08-02T15:15:17.678Z,35.68
2023-08-02T15:17:48.240Z,35.78
2023-08-02T15:20:15.292Z,35.78
2023-08-02T15:22:42.556Z,35.91
2023-08-02T15:25:12.088Z,36.40
2023-08-02T15:27:38.948Z,36.20
2023-08-02T15:30:06.440Z,36.27
2023-08-02T15:32:33.738Z,35.90
2023-08-02T15:35:00.787Z,35.84
2023-08-02T15:37:27.777Z,36.08
2023-08-02T15:39:54.610Z,36.16
2023-08-02T15:42:25.434Z,36.08
2023-08-02T15:44:53.150Z,36.00
2023-08-02T15:47:32.000Z,35.69
2023-08-02T15:50:08.161Z,36.11
2023-08-02T15:52:35.242Z,36.21
2023-08-02T15:55:02.201Z,36.06
2023-08-02T15:57:38.254Z,36.00
2023-08-02T16:00:06.003Z,35.42
2023-08-02T16:02:37.803Z,34.65
2023-08-02T16:05:05.024Z,34.02
2023-08-02T16:07:31.933Z,33.91
2023-08-02T16:09:58.811Z,33.61
2023-08-02T16:12:29.083Z,33.31
2023-08-02T16:14:56.076Z,33.01
2023-08-02T16:17:23.104Z,32.91
2023-08-02T16:19:50.149Z,33.06
2023-08-02T16:22:17.070Z,33.58
2023-08-02T16:24:43.996Z,34.20
2023-08-02T16:27:10.851Z,34.47
2023-08-02T16:29:38.656Z,34.09
2023-08-02T16:32:06.155Z,33.94
2023-08-02T16:34:33.411Z,34.08
2023-08-02T16:37:00.377Z,33.78
2023-08-02T16:39:27.241Z,33.56
2023-08-02T16:41:54.314Z,33.29
2023-08-02T16:44:21.651Z,33.55
2023-08-02T16:46:48.696Z,33.32
2023-08-02T16:49:17.471Z,33.03
2023-08-02T16:51:51.101Z,32.76
2023-08-02T16:54:26.645Z,32.70
2023-08-02T16:56:53.703Z,32.53
2023-08-02T16:59:26.791Z,32.34
2023-08-02T17:02:09.790Z,32.40
2023-08-02T17:04:37.858Z,32.09
2023-08-02T17:07:05.388Z,31.98
2023-08-02T17:09:34.294Z,32.11
2023-08-02T17:12:02.503Z,32.29
2023-08-02T17:14:35.341Z,32.06
2023-08-02T17:17:06.350Z,31.97
2023-08-02T17:19:34.021Z,31.96
2023-08-02T17:22:01.015Z,31.90
2023-08-02T17:24:30.422Z,31.92
2023-08-02T17:26:57.587Z,31.90
2023-08-02T17:29:24.736Z,31.74
2023-08-02T17:31:58.818Z,31.73
2023-08-02T17:34:33.519Z,31.64
2023-08-02T17:37:00.590Z,31.63
2023-08-02T17:39:27.602Z,31.59
2023-08-02T17:41:55.066Z,31.75
2023-08-02T17:44:22.128Z,31.61
2023-08-02T17:46:51.670Z,31.55
2023-08-02T17:49:18.832Z,31.56
2023-08-02T17:51:47.314Z,31.59
2023-08-02T17:54:15.544Z,31.55
2023-08-02T17:56:42.421Z,31.51
2023-08-02T17:59:09.573Z,31.47
2023-08-02T18:01:36.573Z,31.34
2023-08-02T18:04:04.986Z,31.31
2023-08-02T18:06:32.932Z,31.12
2023-08-02T18:09:00.110Z,30.93
2023-08-02T18:11:29.809Z,31.04
2023-08-02T18:13:57.354Z,30.85
2023-08-02T18:16:27.526Z,30.80
2023-08-02T18:18:56.670Z,30.94
2023-08-02T18:21:23.681Z,30.73
2023-08-02T18:23:50.609Z,30.69
2023-08-02T18:26:17.860Z,30.57
2023-08-02T18:28:45.011Z,30.46
2023-08-02T18:31:12.389Z,30.50
2023-08-02T18:33:39.350Z,30.32
2023-08-02T18:36:16.719Z,30.23
2023-08-02T18:38:49.611Z,30.29
2023-08-02T18:41:18.750Z,30.38
2023-08-02T18:43:52.668Z,30.20
2023-08-02T18:46:22.746Z,30.27
2023-08-02T18:48:49.993Z,30.22
2023-08-02T18:51:18.481Z,30.15
2023-08-02T18:53:50.080Z,30.15
2023-08-02T18:56:18.258Z,30.02
2023-08-02T18:58:46.607Z,30.08
2023-08-02T19:01:13.562Z,29.89
2023-08-02T19:03:41.150Z,29.98
2023-08-02T19:06:09.360Z,30.18
2023-08-02T19:08:44.871Z,30.07
2023-08-02T19:11:26.365Z,30.03
2023-08-02T19:13:54.341Z,30.00
2023-08-02T19:16:23.407Z,30.03
2023-08-02T19:18:50.913Z,29.98
2023-08-02T19:21:18.538Z,29.97
2023-08-02T19:23:51.250Z,29.90
2023-08-02T19:26:19.952Z,29.95
2023-08-02T19:28:48.301Z,29.79
2023-08-02T19:31:15.403Z,29.82
2023-08-02T19:33:46.410Z,29.82
2023-08-02T19:36:23.575Z,29.69
2023-08-02T19:38:51.026Z,29.63
2023-08-02T19:41:27.165Z,29.63
2023-08-02T19:44:02.598Z,29.48
2023-08-02T19:46:29.995Z,29.48
2023-08-02T19:48:57.616Z,29.59
2023-08-02T19:51:24.690Z,29.68
2023-08-02T19:53:51.801Z,29.59
2023-08-02T19:56:25.793Z,29.52
2023-08-02T19:58:58.298Z,29.59
2023-08-02T20:01:29.945Z,29.49
2023-08-02T20:03:57.188Z,29.38
2023-08-02T20:06:27.312Z,29.46
2023-08-02T20:08:54.591Z,29.48
2023-08-02T20:11:23.103Z,29.46
2023-08-02T20:14:13.203Z,29.37
2023-08-02T20:16:43.150Z,29.46
2023-08-02T20:19:23.711Z,29.34
2023-08-02T20:21:53.094Z,29.21
2023-08-02T20:24:21.100Z,29.30
2023-08-02T20:26:51.733Z,29.17
2023-08-02T20:29:26.282Z,29.24
2023-08-02T20:31:53.877Z,29.27
2023-08-02T20:34:22.067Z,29.11
2023-08-02T20:36:55.998Z,29.13
2023-08-02T20:39:27.620Z,29.16
2023-08-02T20:41:58.080Z,29.19
2023-08-02T20:44:28.268Z,29.20
2023-08-02T20:46:55.591Z,29.18
2023-08-02T20:49:22.852Z,29.19
2023-08-02T20:51:54.530Z,29.19
2023-08-02T20:54:21.634Z,29.10
2023-08-02T20:56:48.950Z,29.09
2023-08-02T20:59:23.220Z,29.09
2023-08-02T21:01:51.908Z,29.09
2023-08-02T21:04:26.935Z,29.12
2023-08-02T21:07:09.579Z,29.01
2023-08-02T21:09:39.900Z,28.98
2023-08-02T21:12:07.664Z,28.99
2023-08-02T21:14:34.955Z,29.10
2023-08-02T21:17:02.346Z,29.02
2023-08-02T21:19:35.770Z,28.91
2023-08-02T21:22:12.120Z,29.03
2023-08-02T21:24:49.765Z,28.90
2023-08-02T21:27:25.399Z,28.93
2023-08-02T21:30:01.861Z,28.93
2023-08-02T21:32:43.979Z,28.99
2023-08-02T21:35:19.730Z,28.81
2023-08-02T21:37:56.903Z,28.87
2023-08-02T21:40:31.368Z,28.89
2023-08-02T21:43:13.634Z,28.96
2023-08-02T21:45:46.118Z,28.97
2023-08-02T21:48:16.706Z,28.98
2023-08-02T21:50:45.540Z,28.80
2023-08-02T21:53:20.378Z,28.76
2023-08-02T21:55:48.104Z,28.84
2023-08-02T21:58:20.354Z,28.82
2023-08-02T22:00:48.878Z,28.92
2023-08-02T22:03:18.889Z,28.93
2023-08-02T22:05:46.229Z,28.82
2023-08-02T22:08:15.485Z,28.80
2023-08-02T22:10:45.331Z,28.80
2023-08-02T22:13:19.529Z,28.78
2023-08-02T22:15:46.837Z,28.75
2023-08-02T22:18:17.626Z,28.75
2023-08-02T22:20:44.782Z,28.73
2023-08-02T22:23:11.938Z,28.82
2023-08-02T22:25:40.570Z,28.86
2023-08-02T22:28:07.674Z,28.82
2023-08-02T22:30:34.868Z,28.79
2023-08-02T22:33:12.503Z,28.74
2023-08-02T22:35:39.957Z,28.79
2023-08-02T22:38:09.427Z,28.71
2023-08-02T22:40:40.729Z,28.74
2023-08-02T22:43:07.713Z,28.73
2023-08-02T22:45:34.923Z,28.70
2023-08-02T22:48:42.194Z,28.69
2023-08-02T22:50:56.418Z,28.63
2023-08-02T22:53:24.003Z,28.66
2023-08-02T22:55:51.485Z,28.62
2023-08-02T22:58:18.525Z,28.67
2023-08-02T23:00:46.945Z,28.66
2023-08-02T23:03:36.192Z,28.50
2023-08-02T23:06:08.924Z,28.51
2023-08-02T23:08:37.075Z,28.52
2023-08-02T23:11:12.760Z,28.49
2023-08-02T23:13:44.650Z,28.52
2023-08-02T23:16:20.797Z,28.57
2023-08-02T23:19:06.194Z,28.48
2023-08-02T23:21:43.206Z,28.42
2023-08-02T23:24:12.731Z,28.48
2023-08-02T23:26:39.986Z,28.38
2023-08-02T23:29:07.048Z,28.45
2023-08-02T23:31:34.386Z,28.55
2023-08-02T23:34:02.430Z,28.48
2023-08-02T23:36:37.303Z,28.42
2023-08-02T23:39:11.872Z,28.59
2023-08-02T23:41:39.012Z,28.47
2023-08-02T23:44:06.018Z,28.64
2023-08-02T23:46:35.260Z,28.56
2023-08-02T23:49:03.944Z,28.45
2023-08-02T23:51:30.920Z,28.41
2023-08-02T23:54:05.822Z,28.44
2023-08-02T23:56:32.869Z,28.42
2023-08-02T23:59:00.489Z,28.48
